Kingston, Georgia
Current Conditions -  °F | °C
As of 5:53 PM on Tuesday 25 Nov 2014 (Local Time) from KVPC Reporting Station
Clear Clear  
Wind Chill: 55°   Ceiling: Unl
Heat Index: 55°   Visibility: 10mi
Dew Point: 28°   Wind: 3mph
Humidity: 35%   Direction: 350°N
Pressure: 30.03"   Gusts: NA
Location:  34.24°N, 84.94°W
Report Text: KVPC 252253Z AUTO 35003KT 10SM CLR 13/M02 A3003 RMK AO2 SLP163 T01281022
Loading
Personal Weather Stations






























Interactive Weather Map New forecast layout! Learn more

10-Day Weather Forecast

Advertisements
Track Severe Weather on mobile